createdAt,value
2018-11-26T00:01:48.110Z,69.93
2018-11-26T00:06:50.783Z,69.71
2018-11-26T00:11:53.398Z,69.70
2018-11-26T00:16:55.974Z,69.78
2018-11-26T00:21:58.591Z,69.82
2018-11-26T00:27:01.183Z,69.92
2018-11-26T00:32:06.786Z,69.86
2018-11-26T00:37:09.358Z,70.01
2018-11-26T00:42:11.994Z,69.76
2018-11-26T00:47:14.543Z,70.32
2018-11-26T00:52:17.107Z,70.06
2018-11-26T00:57:19.701Z,70.41
2018-11-26T01:02:22.311Z,70.13
2018-11-26T01:07:24.903Z,70.36
2018-11-26T01:12:27.494Z,70.67
2018-11-26T01:17:30.080Z,69.92
2018-11-26T01:22:32.678Z,70.79
2018-11-26T01:27:35.240Z,70.36
2018-11-26T01:32:37.879Z,70.92
2018-11-26T01:37:40.526Z,70.65
2018-11-26T01:42:43.195Z,70.79
2018-11-26T01:47:45.751Z,70.56
2018-11-26T01:52:48.344Z,70.43
2018-11-26T01:57:51.063Z,70.75
2018-11-26T02:02:53.943Z,70.63
2018-11-26T02:07:56.591Z,70.82
2018-11-26T02:12:59.202Z,70.57
2018-11-26T02:18:01.790Z,70.67
2018-11-26T02:23:04.449Z,70.99
2018-11-26T02:28:07.014Z,70.94
2018-11-26T02:33:09.653Z,71.88
2018-11-26T02:38:12.208Z,71.51
2018-11-26T02:43:14.811Z,71.21
2018-11-26T02:48:17.400Z,71.68
2018-11-26T02:53:19.998Z,71.12
2018-11-26T02:58:22.587Z,70.97
2018-11-26T03:03:25.215Z,71.79
2018-11-26T03:08:27.838Z,71.86
2018-11-26T03:13:30.429Z,71.52
2018-11-26T03:18:33.038Z,71.32
2018-11-26T03:23:35.673Z,71.42
2018-11-26T03:28:38.246Z,71.52
2018-11-26T03:33:40.845Z,71.42
2018-11-26T03:38:51.622Z,71.40
2018-11-26T03:43:54.272Z,71.39
2018-11-26T03:48:56.829Z,71.67
2018-11-26T03:53:59.425Z,71.11
2018-11-26T03:59:02.010Z,70.84
2018-11-26T04:04:04.618Z,71.44
2018-11-26T04:09:07.751Z,71.30
2018-11-26T04:14:10.388Z,71.52
2018-11-26T04:19:12.986Z,71.32
2018-11-26T04:24:15.562Z,71.55
2018-11-26T04:29:18.150Z,71.53
2018-11-26T04:34:20.767Z,71.58
2018-11-26T04:39:23.373Z,71.44
2018-11-26T04:44:25.987Z,71.76
2018-11-26T04:49:28.692Z,71.76
2018-11-26T04:54:31.344Z,71.84
2018-11-26T04:59:33.922Z,71.93
2018-11-26T05:04:36.542Z,71.82
2018-11-26T05:09:39.347Z,71.69
2018-11-26T05:14:41.934Z,71.75
2018-11-26T05:19:44.531Z,71.72
2018-11-26T05:24:47.182Z,71.75
2018-11-26T05:29:49.837Z,71.80
2018-11-26T05:34:52.505Z,71.98
2018-11-26T05:39:55.057Z,72.46
2018-11-26T05:44:57.620Z,72.08
2018-11-26T05:50:00.430Z,71.89
2018-11-26T05:55:03.302Z,72.71
2018-11-26T06:00:13.793Z,72.63
2018-11-26T06:05:16.726Z,72.51
2018-11-26T06:10:19.510Z,72.52
2018-11-26T06:15:22.328Z,72.92
2018-11-26T06:20:25.099Z,72.50
2018-11-26T06:25:27.788Z,72.95
2018-11-26T06:30:30.444Z,72.47
2018-11-26T06:35:33.066Z,72.51
2018-11-26T06:40:35.839Z,73.15
2018-11-26T06:45:38.478Z,72.65
2018-11-26T06:50:41.118Z,72.49
2018-11-26T06:55:43.743Z,73.11
2018-11-26T07:00:46.342Z,73.19
2018-11-26T07:05:49.229Z,73.12
2018-11-26T07:10:51.838Z,72.84
2018-11-26T07:15:54.513Z,73.14
2018-11-26T07:20:57.167Z,73.11
2018-11-26T07:26:00.490Z,73.05
2018-11-26T07:31:03.179Z,73.12
2018-11-26T07:36:11.160Z,73.17
2018-11-26T07:41:08.470Z,73.07
2018-11-26T07:46:11.100Z,72.95
2018-11-26T07:51:14.027Z,73.19
2018-11-26T07:56:16.654Z,73.26
2018-11-26T08:01:19.286Z,73.22
2018-11-26T08:06:22.157Z,73.05
2018-11-26T08:11:24.796Z,73.12
2018-11-26T08:16:27.526Z,73.00
2018-11-26T08:21:30.214Z,73.01
2018-11-26T08:26:32.914Z,73.19
2018-11-26T08:31:35.679Z,73.00
2018-11-26T08:36:43.608Z,73.05
2018-11-26T08:41:52.951Z,72.85
2018-11-26T08:46:55.707Z,72.89
2018-11-26T08:51:58.303Z,72.90
2018-11-26T08:57:01.139Z,72.67
2018-11-26T09:02:08.250Z,72.63
2018-11-26T09:07:10.960Z,73.05
2018-11-26T09:12:13.583Z,72.82
2018-11-26T09:17:16.223Z,72.93
2018-11-26T09:22:19.050Z,72.70
2018-11-26T09:27:21.756Z,72.65
2018-11-26T09:32:24.379Z,72.61
2018-11-26T09:37:27.144Z,72.42
2018-11-26T09:42:29.760Z,72.40
2018-11-26T09:47:32.364Z,72.33
2018-11-26T09:52:35.039Z,72.25
2018-11-26T09:57:37.816Z,72.52
2018-11-26T10:02:41.878Z,72.24
2018-11-26T10:07:44.663Z,71.97
2018-11-26T10:12:47.333Z,71.67
2018-11-26T10:17:50.247Z,72.03
2018-11-26T10:22:53.390Z,71.81
2018-11-26T10:27:56.020Z,71.20
2018-11-26T10:32:58.823Z,71.47
2018-11-26T10:38:01.460Z,71.36
2018-11-26T10:43:04.386Z,70.85
2018-11-26T10:48:07.169Z,70.59
2018-11-26T10:53:09.948Z,70.73
2018-11-26T10:58:12.669Z,70.42
2018-11-26T11:03:15.367Z,70.18
2018-11-26T11:08:18.022Z,70.18
2018-11-26T11:13:20.726Z,70.11
2018-11-26T11:18:23.330Z,69.85
2018-11-26T11:23:26.060Z,69.75
2018-11-26T11:28:28.736Z,70.03
2018-11-26T11:33:31.358Z,69.79
2018-11-26T11:38:34.195Z,69.59
2018-11-26T11:43:36.981Z,69.65
2018-11-26T11:48:39.583Z,69.39
2018-11-26T11:53:42.507Z,69.50
2018-11-26T11:58:45.130Z,69.22
2018-11-26T12:03:47.755Z,69.07
2018-11-26T12:08:50.393Z,68.80
2018-11-26T12:13:53.057Z,68.75
2018-11-26T12:18:55.652Z,68.73
2018-11-26T12:23:58.343Z,68.77
2018-11-26T12:29:00.998Z,68.55
2018-11-26T12:34:03.993Z,68.67
2018-11-26T12:39:08.611Z,68.75
2018-11-26T12:44:11.232Z,68.62
2018-11-26T12:49:13.955Z,68.76
2018-11-26T12:54:16.632Z,68.54
2018-11-26T12:59:19.283Z,68.55
2018-11-26T13:04:22.171Z,68.58
2018-11-26T13:09:24.729Z,68.76
2018-11-26T13:14:27.431Z,68.46
2018-11-26T13:19:30.216Z,68.29
2018-11-26T13:24:32.836Z,68.33
2018-11-26T13:29:35.460Z,67.95
2018-11-26T13:34:38.373Z,67.81
2018-11-26T13:39:40.829Z,67.75
2018-11-26T13:44:43.395Z,67.92
2018-11-26T13:49:46.335Z,67.95
2018-11-26T13:54:48.789Z,67.70
2018-11-26T13:59:51.409Z,67.34
2018-11-26T14:04:54.017Z,67.37
2018-11-26T14:09:56.696Z,67.18
2018-11-26T14:14:59.360Z,66.84
2018-11-26T14:20:02.067Z,66.91
2018-11-26T14:25:06.451Z,66.93
2018-11-26T14:30:15.033Z,67.03
2018-11-26T14:35:17.697Z,66.68
2018-11-26T14:40:23.651Z,66.87
2018-11-26T14:45:26.320Z,66.73
2018-11-26T14:50:29.028Z,66.58
2018-11-26T14:55:35.431Z,66.50
2018-11-26T15:00:38.181Z,66.29
2018-11-26T15:05:40.800Z,66.20
2018-11-26T15:10:43.433Z,66.32
2018-11-26T15:15:46.065Z,66.25
2018-11-26T15:20:48.766Z,66.10
2018-11-26T15:25:51.438Z,65.60
2018-11-26T15:30:54.092Z,65.58
2018-11-26T15:35:56.689Z,65.65
2018-11-26T15:40:59.410Z,65.52
2018-11-26T15:46:02.030Z,65.81
2018-11-26T15:51:05.224Z,65.58
2018-11-26T15:56:07.954Z,65.38
2018-11-26T16:01:10.560Z,65.39
2018-11-26T16:06:13.217Z,65.15
2018-11-26T16:11:15.821Z,64.84
2018-11-26T16:16:18.424Z,65.10
2018-11-26T16:21:21.044Z,64.74
2018-11-26T16:26:23.693Z,64.91
2018-11-26T16:31:26.389Z,64.67
2018-11-26T16:36:29.071Z,64.77
2018-11-26T16:41:31.677Z,64.41
2018-11-26T16:46:34.234Z,64.78
2018-11-26T16:51:36.900Z,64.56
2018-11-26T16:56:40.030Z,64.35
2018-11-26T17:01:42.835Z,64.31
2018-11-26T17:06:45.592Z,63.97
2018-11-26T17:11:48.404Z,63.92
2018-11-26T17:16:51.076Z,63.97
2018-11-26T17:21:53.944Z,63.29
2018-11-26T17:26:56.669Z,63.29
2018-11-26T17:32:00.004Z,63.42
2018-11-26T17:37:02.733Z,63.26
2018-11-26T17:42:05.961Z,63.06
2018-11-26T17:47:08.661Z,63.05
2018-11-26T17:52:11.389Z,62.92
2018-11-26T17:57:14.052Z,62.38
2018-11-26T18:02:16.727Z,62.28
2018-11-26T18:07:19.647Z,61.96
2018-11-26T18:12:22.215Z,61.97
2018-11-26T18:17:24.839Z,61.56
2018-11-26T18:22:27.477Z,61.49
2018-11-26T18:27:30.132Z,61.28
2018-11-26T18:32:32.696Z,61.10
2018-11-26T18:37:35.430Z,59.95
2018-11-26T18:42:38.027Z,60.07
2018-11-26T18:47:40.640Z,60.28
2018-11-26T18:52:44.020Z,59.78
2018-11-26T18:57:46.797Z,59.92
2018-11-26T19:02:50.230Z,59.72
2018-11-26T19:07:52.754Z,59.08
2018-11-26T19:12:59.923Z,59.22
2018-11-26T19:18:25.776Z,59.80
2018-11-26T19:23:28.372Z,59.89
2018-11-26T19:28:31.069Z,60.60
2018-11-26T19:33:33.983Z,61.05
2018-11-26T19:38:36.731Z,61.68
2018-11-26T19:43:39.340Z,62.48
2018-11-26T19:48:42.022Z,62.58
2018-11-26T19:53:44.580Z,63.33
2018-11-26T19:58:47.153Z,63.53
2018-11-26T20:03:58.707Z,63.97
2018-11-26T20:09:01.355Z,64.22
2018-11-26T20:14:04.889Z,64.85
2018-11-26T20:19:07.471Z,65.27
2018-11-26T20:24:10.070Z,65.41
2018-11-26T20:29:12.693Z,65.46
2018-11-26T20:34:15.269Z,65.47
2018-11-26T20:39:17.884Z,65.95
2018-11-26T20:44:20.553Z,66.35
2018-11-26T20:49:23.217Z,66.41
2018-11-26T20:54:25.932Z,66.66
2018-11-26T20:59:28.585Z,66.87
2018-11-26T21:04:31.212Z,67.19
2018-11-26T21:09:33.944Z,67.29
2018-11-26T21:14:36.627Z,67.14
2018-11-26T21:19:39.224Z,67.71
2018-11-26T21:24:41.851Z,67.52
2018-11-26T21:29:44.446Z,67.69
2018-11-26T21:34:47.046Z,67.51
2018-11-26T21:39:53.114Z,68.15
2018-11-26T21:44:55.973Z,68.23
2018-11-26T21:49:58.614Z,68.01
2018-11-26T21:55:01.229Z,67.83
2018-11-26T22:00:25.507Z,67.93
2018-11-26T22:05:29.064Z,68.15
2018-11-26T22:10:31.722Z,68.08
2018-11-26T22:15:34.433Z,67.88
2018-11-26T22:20:37.036Z,68.45
2018-11-26T22:25:39.645Z,67.80
2018-11-26T22:30:42.292Z,67.55
2018-11-26T22:35:44.948Z,67.96
2018-11-26T22:40:47.623Z,68.27
2018-11-26T22:45:50.420Z,68.02
2018-11-26T22:50:53.072Z,68.14
2018-11-26T22:55:55.695Z,68.10
2018-11-26T23:00:58.287Z,67.99
2018-11-26T23:06:00.886Z,67.97
2018-11-26T23:11:03.430Z,68.49
2018-11-26T23:16:06.804Z,68.11
2018-11-26T23:21:09.425Z,68.18
2018-11-26T23:26:12.041Z,68.47
2018-11-26T23:31:14.937Z,69.05
2018-11-26T23:36:17.633Z,68.81
2018-11-26T23:41:20.228Z,68.79
2018-11-26T23:46:22.913Z,68.76
2018-11-26T23:51:25.720Z,69.23
2018-11-26T23:56:28.398Z,68.99
